NCAR-RAP Real-Time Weather Data

Output produced by METARs form (12 May 2021  10:35 UTC)
found at http://weather.rap.ucar.edu/surface/
 
KORD 120951Z 00000KT 10SM CLR 03/M01 A3042 RMK AO2 SLP306 T00331011
KORD 120851Z 00000KT 10SM CLR 04/M01 A3041 RMK AO2 SLP303 T00391011 53001
KORD 120751Z 00000KT 10SM CLR 04/M01 A3040 RMK AO2 SLP299 T00391011
KORD 120651Z 29003KT 10SM CLR 04/M01 A3040 RMK AO2 SLP298 T00441011
KORD 120551Z 00000KT 10SM CLR 06/M01 A3041 RMK AO2 SLP300 T00561011 10106 20050 401330022 58004
KORD 120451Z 00000KT 10SM CLR 06/M02 A3042 RMK AO2 SLP303 T00561022
KORD 120351Z 00000KT 10SM CLR 07/M03 A3041 RMK AO2 SLP302 T00721033
KORD 120251Z 00000KT 10SM CLR 08/M04 A3042 RMK AO2 SLP304 T00781039 53018
KORD 120151Z 05004KT 10SM CLR 08/M04 A3039 RMK AO2 SLP295 T00831039
KORD 120051Z 06009KT 10SM FEW250 09/M03 A3037 RMK AO2 SLP287 T00941033
KORD 112351Z 06008KT 10SM FEW065 FEW250 10/M03 A3036 RMK AO2 SLP286 T01001028 10128 20100 52008
KORD 112251Z 04011KT 10SM FEW065 SCT250 11/M02 A3036 RMK AO2 SLP284 T01061022
KORD 112151Z 05015G20KT 10SM FEW065 SCT250 11/M02 A3035 RMK AO2 SLP280 T01061017
KORD 112051Z 06012G22KT 10SM FEW065 FEW250 11/M02 A3034 RMK AO2 SLP278 T01111017 55001
KORD 111951Z 07012G18KT 10SM FEW065 FEW250 12/M01 A3034 RMK AO2 SLP277 T01171011